sensor_id;sensor_type;location;lat;lon;timestamp;P1;durP1;ratioP1;P2;durP2;ratioP2
68188;SDS011;66299;47.514;19.218;2024-02-04T19:27:01;5.93;;;2.00;;
68188;SDS011;66299;47.514;19.218;2024-02-04T19:29:35;5.18;;;1.85;;
68188;SDS011;66299;47.514;19.218;2024-02-04T19:32:05;4.75;;;1.80;;
68188;SDS011;66299;47.514;19.218;2024-02-04T19:34:37;5.15;;;1.92;;
68188;SDS011;66299;47.514;19.218;2024-02-04T19:37:07;6.70;;;1.87;;
68188;SDS011;66299;47.514;19.218;2024-02-04T19:39:36;4.82;;;1.70;;
68188;SDS011;66299;47.514;19.218;2024-02-04T19:42:08;4.97;;;1.88;;
68188;SDS011;66299;47.514;19.218;2024-02-04T19:44:38;4.97;;;1.88;;
68188;SDS011;66299;47.514;19.218;2024-02-04T19:47:10;5.40;;;1.90;;
68188;SDS011;66299;47.514;19.218;2024-02-04T19:49:39;5.55;;;1.90;;
68188;SDS011;66299;47.514;19.218;2024-02-04T19:52:13;5.20;;;1.80;;
68188;SDS011;66299;47.514;19.218;2024-02-04T19:54:44;5.10;;;1.90;;
68188;SDS011;66299;47.514;19.218;2024-02-04T19:57:15;8.15;;;2.30;;
68188;SDS011;66299;47.514;19.218;2024-02-04T19:59:45;7.17;;;2.43;;
68188;SDS011;66299;47.514;19.218;2024-02-04T20:02:16;5.15;;;2.00;;
68188;SDS011;66299;47.514;19.218;2024-02-04T20:04:46;6.68;;;2.10;;
68188;SDS011;66299;47.514;19.218;2024-02-04T20:07:16;5.87;;;2.00;;
68188;SDS011;66299;47.514;19.218;2024-02-04T20:09:48;5.20;;;1.98;;
68188;SDS011;66299;47.514;19.218;2024-02-04T20:12:25;4.93;;;1.97;;
68188;SDS011;66299;47.514;19.218;2024-02-04T20:14:57;5.80;;;2.00;;
68188;SDS011;66299;47.514;19.218;2024-02-04T20:17:27;6.28;;;2.20;;
68188;SDS011;66299;47.514;19.218;2024-02-04T20:19:58;6.35;;;2.13;;
68188;SDS011;66299;47.514;19.218;2024-02-04T20:22:31;6.47;;;2.05;;
68188;SDS011;66299;47.514;19.218;2024-02-04T20:25:02;5.32;;;1.90;;
68188;SDS011;66299;47.514;19.218;2024-02-04T20:27:34;5.82;;;1.90;;
68188;SDS011;66299;47.514;19.218;2024-02-04T20:30:04;4.68;;;1.80;;
68188;SDS011;66299;47.514;19.218;2024-02-04T20:32:36;5.47;;;1.85;;
68188;SDS011;66299;47.514;19.218;2024-02-04T20:35:08;5.13;;;1.90;;
68188;SDS011;66299;47.514;19.218;2024-02-04T20:37:38;6.07;;;1.90;;
68188;SDS011;66299;47.514;19.218;2024-02-04T20:40:10;3.85;;;1.70;;
68188;SDS011;66299;47.514;19.218;2024-02-04T20:42:44;6.18;;;2.10;;
68188;SDS011;66299;47.514;19.218;2024-02-04T20:45:15;5.70;;;1.88;;
68188;SDS011;66299;47.514;19.218;2024-02-04T20:47:45;5.03;;;1.80;;
68188;SDS011;66299;47.514;19.218;2024-02-04T20:50:16;6.07;;;1.90;;
68188;SDS011;66299;47.514;19.218;2024-02-04T20:52:46;7.18;;;1.80;;
68188;SDS011;66299;47.514;19.218;2024-02-04T20:55:17;4.43;;;1.75;;
68188;SDS011;66299;47.514;19.218;2024-02-04T20:57:49;4.75;;;1.80;;
68188;SDS011;66299;47.514;19.218;2024-02-04T21:00:21;4.97;;;1.80;;
68188;SDS011;66299;47.514;19.218;2024-02-04T21:02:51;6.28;;;1.75;;
68188;SDS011;66299;47.514;19.218;2024-02-04T21:05:22;5.20;;;1.80;;
68188;SDS011;66299;47.514;19.218;2024-02-04T21:07:53;7.38;;;1.90;;
68188;SDS011;66299;47.514;19.218;2024-02-04T21:10:23;4.80;;;1.80;;
68188;SDS011;66299;47.514;19.218;2024-02-04T21:12:56;4.55;;;1.70;;
68188;SDS011;66299;47.514;19.218;2024-02-04T21:15:33;4.85;;;1.70;;
68188;SDS011;66299;47.514;19.218;2024-02-04T21:20:34;4.00;;;1.60;;
68188;SDS011;66299;47.514;19.218;2024-02-04T21:23:05;4.28;;;1.60;;
68188;SDS011;66299;47.514;19.218;2024-02-04T21:25:35;5.57;;;1.92;;
68188;SDS011;66299;47.514;19.218;2024-02-04T21:28:08;4.78;;;1.70;;
68188;SDS011;66299;47.514;19.218;2024-02-04T21:30:38;3.25;;;1.50;;
68188;SDS011;66299;47.514;19.218;2024-02-04T21:33:08;4.13;;;1.65;;
68188;SDS011;66299;47.514;19.218;2024-02-04T21:35:41;4.72;;;1.60;;
68188;SDS011;66299;47.514;19.218;2024-02-04T21:38:12;4.50;;;1.63;;
68188;SDS011;66299;47.514;19.218;2024-02-04T21:40:44;5.97;;;1.63;;
68188;SDS011;66299;47.514;19.218;2024-02-04T21:43:18;4.30;;;1.50;;
68188;SDS011;66299;47.514;19.218;2024-02-04T21:45:51;2.58;;;1.33;;
68188;SDS011;66299;47.514;19.218;2024-02-04T21:48:23;3.22;;;1.50;;
68188;SDS011;66299;47.514;19.218;2024-02-04T21:50:51;3.38;;;1.48;;
68188;SDS011;66299;47.514;19.218;2024-02-04T21:53:25;2.42;;;1.40;;
68188;SDS011;66299;47.514;19.218;2024-02-04T21:55:54;3.53;;;1.40;;
68188;SDS011;66299;47.514;19.218;2024-02-04T21:58:27;1.90;;;1.30;;
68188;SDS011;66299;47.514;19.218;2024-02-04T22:00:57;2.63;;;1.40;;
68188;SDS011;66299;47.514;19.218;2024-02-04T22:03:37;2.45;;;1.33;;
68188;SDS011;66299;47.514;19.218;2024-02-04T22:06:05;5.65;;;1.50;;
68188;SDS011;66299;47.514;19.218;2024-02-04T22:08:38;3.90;;;1.40;;
68188;SDS011;66299;47.514;19.218;2024-02-04T22:11:07;2.67;;;1.40;;
68188;SDS011;66299;47.514;19.218;2024-02-04T22:13:39;3.10;;;1.40;;
68188;SDS011;66299;47.514;19.218;2024-02-04T22:16:08;2.87;;;1.30;;
68188;SDS011;66299;47.514;19.218;2024-02-04T22:18:38;3.95;;;1.50;;
68188;SDS011;66299;47.514;19.218;2024-02-04T22:21:07;3.63;;;1.42;;
68188;SDS011;66299;47.514;19.218;2024-02-04T22:23:40;3.08;;;1.42;;
68188;SDS011;66299;47.514;19.218;2024-02-04T22:26:11;2.47;;;1.35;;
68188;SDS011;66299;47.514;19.218;2024-02-04T22:28:44;3.88;;;1.50;;
68188;SDS011;66299;47.514;19.218;2024-02-04T22:31:17;2.05;;;1.30;;
68188;SDS011;66299;47.514;19.218;2024-02-04T22:33:48;3.35;;;1.33;;
68188;SDS011;66299;47.514;19.218;2024-02-04T22:36:17;3.03;;;1.40;;
68188;SDS011;66299;47.514;19.218;2024-02-04T22:38:48;2.95;;;1.33;;
68188;SDS011;66299;47.514;19.218;2024-02-04T22:41:19;1.98;;;1.30;;
68188;SDS011;66299;47.514;19.218;2024-02-04T22:43:50;2.10;;;1.30;;
68188;SDS011;66299;47.514;19.218;2024-02-04T22:46:26;3.03;;;1.40;;
68188;SDS011;66299;47.514;19.218;2024-02-04T22:48:56;1.98;;;1.23;;
68188;SDS011;66299;47.514;19.218;2024-02-04T22:51:27;2.45;;;1.33;;
68188;SDS011;66299;47.514;19.218;2024-02-04T22:53:57;2.63;;;1.30;;
68188;SDS011;66299;47.514;19.218;2024-02-04T22:56:27;2.60;;;1.40;;
68188;SDS011;66299;47.514;19.218;2024-02-04T22:59:00;2.20;;;1.30;;
68188;SDS011;66299;47.514;19.218;2024-02-04T23:01:29;3.22;;;1.48;;
68188;SDS011;66299;47.514;19.218;2024-02-04T23:03:58;3.83;;;1.45;;
68188;SDS011;66299;47.514;19.218;2024-02-04T23:06:33;2.67;;;1.40;;
68188;SDS011;66299;47.514;19.218;2024-02-04T23:09:05;3.75;;;1.38;;
68188;SDS011;66299;47.514;19.218;2024-02-04T23:11:41;3.20;;;1.30;;
68188;SDS011;66299;47.514;19.218;2024-02-04T23:14:14;2.55;;;1.40;;
68188;SDS011;66299;47.514;19.218;2024-02-04T23:16:47;3.13;;;1.40;;
68188;SDS011;66299;47.514;19.218;2024-02-04T23:19:16;3.10;;;1.50;;
68188;SDS011;66299;47.514;19.218;2024-02-04T23:21:49;3.20;;;1.40;;
68188;SDS011;66299;47.514;19.218;2024-02-04T23:24:20;2.07;;;1.27;;
68188;SDS011;66299;47.514;19.218;2024-02-04T23:26:50;2.90;;;1.40;;
68188;SDS011;66299;47.514;19.218;2024-02-04T23:29:22;2.97;;;1.40;;
68188;SDS011;66299;47.514;19.218;2024-02-04T23:31:51;2.78;;;1.40;;
68188;SDS011;66299;47.514;19.218;2024-02-04T23:34:24;5.57;;;1.48;;
68188;SDS011;66299;47.514;19.218;2024-02-04T23:36:55;2.42;;;1.30;;
68188;SDS011;66299;47.514;19.218;2024-02-04T23:39:26;3.50;;;1.40;;
68188;SDS011;66299;47.514;19.218;2024-02-04T23:41:54;5.07;;;1.50;;
68188;SDS011;66299;47.514;19.218;2024-02-04T23:44:26;3.00;;;1.40;;
68188;SDS011;66299;47.514;19.218;2024-02-04T23:46:55;3.42;;;1.42;;
68188;SDS011;66299;47.514;19.218;2024-02-04T23:49:27;3.28;;;1.50;;
68188;SDS011;66299;47.514;19.218;2024-02-04T23:51:56;3.13;;;1.50;;
68188;SDS011;66299;47.514;19.218;2024-02-04T23:54:28;4.00;;;1.50;;
68188;SDS011;66299;47.514;19.218;2024-02-04T23:56:56;3.88;;;1.50;;
68188;SDS011;66299;47.514;19.218;2024-02-04T23:59:27;4.32;;;1.50;;
